EGSS Airport Information

Runway Information
Runway 04 Length 10003 ft width 151 ft
Elevation 324 ft Threshold 0 ft Heading 44
Runway 22 Length 10003 ft Width 151 ft
Elevation 348 ft Threshold 0 ft Heading 224
Airport Frequencies
Type APP Name Essex Rada Frequency 120.625 MHZ
Type ATIS Name ATIS Frequency 127.175 MHZ
Type CLD Name CLNC DEL Frequency 121.95 MHZ
Type DIR Name DIRECTOR Frequency 136.2 MHZ
Type GND Name GND Frequency 121.725 MHZ
Type RDR Name Director Frequency 136.2 MHZ
Type TWR Name TWR Frequency 123.8 MHZ
Airport Navaids
Type VOR-DME Name Barkway Frequency 116250 KHZ
Type NDB Name Stansted Frequency 429 KHZ
Airport Weather Information & NOTAM
ADDS - METARS form results

(0339 UTC 29 June 2017)
 
METAR text: EGSS 290320Z AUTO 26007KT 9999 OVC010 11/10 Q0994
Conditions at: EGSS (STANSTED AIRPORT, GB) observed 0320 UTC 29 June 2017
Temperature: 11.0°C (52°F)
Dewpoint: 10.0°C (50°F) [RH = 94%]
Pressure (altimeter): 29.35 inches Hg (994.0 mb)
Winds: from the W (260 degrees) at 8 MPH (7 knots; 3.6 m/s)
Visibility: 6 or more miles (10+ km)
Ceiling: 1000 feet AGL
Clouds: overcast cloud deck at 1000 feet AGL
Weather: no significant weather observed at this time

METAR text: EGSS 290250Z AUTO 26007KT 9999 OVC010 11/10 Q0994
Conditions at: EGSS (STANSTED AIRPORT, GB) observed 0250 UTC 29 June 2017
Temperature: 11.0°C (52°F)
Dewpoint: 10.0°C (50°F) [RH = 94%]
Pressure (altimeter): 29.35 inches Hg (994.0 mb)
Winds: from the W (260 degrees) at 8 MPH (7 knots; 3.6 m/s)
Visibility: 6 or more miles (10+ km)
Ceiling: 1000 feet AGL
Clouds: overcast cloud deck at 1000 feet AGL
Weather: no significant weather observed at this time